createdAt,value
2022-11-05T00:00:26.215Z,99249.88
2022-11-05T00:03:13.171Z,99254.50
2022-11-05T00:05:41.235Z,99263.91
2022-11-05T00:08:08.796Z,99255.94
2022-11-05T00:10:37.756Z,99260.00
2022-11-05T00:13:08.308Z,99268.34
2022-11-05T00:15:35.793Z,99272.41
2022-11-05T00:18:03.811Z,99277.59
2022-11-05T00:20:33.106Z,99283.13
2022-11-05T00:23:01.470Z,99283.31
2022-11-05T00:25:29.505Z,99289.38
2022-11-05T00:28:01.046Z,99292.66
2022-11-05T00:30:29.625Z,99292.22
2022-11-05T00:33:01.701Z,99306.09
2022-11-05T00:35:29.764Z,99306.59
2022-11-05T00:37:58.601Z,99312.94
2022-11-05T00:40:26.290Z,99313.50
2022-11-05T00:42:53.966Z,99310.72
2022-11-05T00:45:21.890Z,99315.81
2022-11-05T00:47:49.933Z,99308.97
2022-11-05T00:50:17.992Z,99314.97
2022-11-05T00:52:49.212Z,99327.75
2022-11-05T00:55:18.255Z,99330.69
2022-11-05T00:57:46.001Z,99326.28
2022-11-05T01:00:15.137Z,99330.81
2022-11-05T01:02:42.587Z,99345.41
2022-11-05T01:05:10.522Z,99343.38
2022-11-05T01:07:37.694Z,99352.41
2022-11-05T01:10:06.601Z,99354.84
2022-11-05T01:12:35.735Z,99357.91
2022-11-05T01:15:03.767Z,99369.06
2022-11-05T01:17:31.076Z,99363.34
2022-11-05T01:19:58.661Z,99372.69
2022-11-05T01:22:26.084Z,99368.69
2022-11-05T01:24:54.287Z,99373.97
2022-11-05T01:27:21.878Z,99375.34
2022-11-05T01:29:51.031Z,99365.44
2022-11-05T01:32:18.329Z,99378.75
2022-11-05T01:34:46.179Z,99385.97
2022-11-05T01:37:13.447Z,99391.53
2022-11-05T01:39:41.056Z,99403.34
2022-11-05T01:42:15.326Z,99400.97
2022-11-05T01:44:54.080Z,99403.94
2022-11-05T01:47:29.283Z,99399.97
2022-11-05T01:50:01.141Z,99397.53
2022-11-05T01:52:30.030Z,99407.19
2022-11-05T01:55:00.414Z,99393.28
2022-11-05T01:57:28.838Z,99385.22
2022-11-05T02:00:00.156Z,99387.19
2022-11-05T02:02:28.196Z,99388.31
2022-11-05T02:05:00.669Z,99396.06
2022-11-05T02:07:28.955Z,99396.44
2022-11-05T02:10:01.362Z,99390.97
2022-11-05T02:12:29.916Z,99396.13
2022-11-05T02:14:59.500Z,99392.53
2022-11-05T02:17:45.224Z,99401.22
2022-11-05T02:20:25.033Z,99407.09
2022-11-05T02:23:14.336Z,99411.94
2022-11-05T02:26:18.592Z,99417.97
2022-11-05T02:29:18.949Z,99423.50
2022-11-05T02:31:56.032Z,99438.88
2022-11-05T02:34:29.062Z,99439.59
2022-11-05T02:37:02.758Z,99444.31
2022-11-05T02:39:41.675Z,99449.44
2022-11-05T02:42:20.438Z,99445.84
2022-11-05T02:44:53.114Z,99447.63
2022-11-05T02:47:27.082Z,99453.47
2022-11-05T02:50:03.250Z,99463.09
2022-11-05T02:52:38.272Z,99455.38
2022-11-05T02:55:22.455Z,99468.53
2022-11-05T02:57:58.395Z,99478.19
2022-11-05T03:00:59.243Z,99489.88
2022-11-05T03:03:34.751Z,99482.50
2022-11-05T03:06:15.715Z,99495.78
2022-11-05T03:09:07.231Z,99502.56
2022-11-05T03:11:41.993Z,99506.91
2022-11-05T03:14:20.740Z,99509.25
2022-11-05T03:16:52.814Z,99510.31
2022-11-05T03:19:30.867Z,99516.06
2022-11-05T03:22:02.785Z,99519.38
2022-11-05T03:24:34.489Z,99516.63
2022-11-05T03:27:10.878Z,99515.69
2022-11-05T03:29:44.781Z,99524.66
2022-11-05T03:32:14.814Z,99532.44
2022-11-05T03:34:48.345Z,99539.81
2022-11-05T03:37:20.230Z,99543.28
2022-11-05T03:39:51.105Z,99560.50
2022-11-05T03:42:24.229Z,99571.88
2022-11-05T03:44:56.800Z,99578.88
2022-11-05T03:47:29.998Z,99581.41
2022-11-05T03:50:07.314Z,99597.09
2022-11-05T03:52:40.225Z,99593.41
2022-11-05T03:55:08.203Z,99588.34
2022-11-05T03:57:40.747Z,99590.84
2022-11-05T04:00:10.765Z,99593.25
2022-11-05T04:02:38.987Z,99607.00
2022-11-05T04:05:08.639Z,99621.44
2022-11-05T04:07:35.911Z,99626.63
2022-11-05T04:10:03.830Z,99621.25
2022-11-05T04:12:31.976Z,99622.59
2022-11-05T04:14:59.312Z,99613.75
2022-11-05T04:17:27.738Z,99622.16
2022-11-05T04:19:55.498Z,99622.56
2022-11-05T04:22:25.390Z,99637.28
2022-11-05T04:24:53.198Z,99638.72
2022-11-05T04:27:20.548Z,99643.78
2022-11-05T04:29:48.549Z,99636.91
2022-11-05T04:32:15.931Z,99643.44
2022-11-05T04:34:43.867Z,99647.25
2022-11-05T04:37:11.157Z,99654.53
2022-11-05T04:39:40.193Z,99648.63
2022-11-05T04:42:07.469Z,99643.78
2022-11-05T04:44:35.750Z,99651.66
2022-11-05T04:47:02.986Z,99651.94
2022-11-05T04:49:30.650Z,99655.34
2022-11-05T04:51:57.860Z,99665.41
2022-11-05T04:54:25.513Z,99668.06
2022-11-05T04:56:54.255Z,99663.84
2022-11-05T04:59:21.917Z,99661.22
2022-11-05T05:01:51.692Z,99665.09
2022-11-05T05:04:19.371Z,99668.31
2022-11-05T05:06:46.745Z,99673.00
2022-11-05T05:09:15.100Z,99686.03
2022-11-05T05:11:42.505Z,99690.06
2022-11-05T05:14:11.694Z,99690.22
2022-11-05T05:16:38.953Z,99697.44
2022-11-05T05:19:06.499Z,99689.03
2022-11-05T05:21:34.013Z,99687.03
2022-11-05T05:24:01.465Z,99680.00
2022-11-05T05:26:29.471Z,99688.38
2022-11-05T05:28:57.078Z,99673.38
2022-11-05T05:31:26.182Z,99680.63
2022-11-05T05:33:53.911Z,99677.06
2022-11-05T05:36:22.438Z,99683.78
2022-11-05T05:38:49.963Z,99687.84
2022-11-05T05:41:17.808Z,99685.63
2022-11-05T05:43:47.589Z,99680.44
2022-11-05T05:46:17.584Z,99679.31
2022-11-05T05:48:49.849Z,99686.00
2022-11-05T05:51:18.834Z,99704.94
2022-11-05T05:53:46.323Z,99711.53
2022-11-05T05:56:14.386Z,99717.75
2022-11-05T05:58:41.923Z,99720.78
2022-11-05T06:01:18.573Z,99730.66
2022-11-05T06:03:48.880Z,99738.88
2022-11-05T06:06:18.278Z,99739.06
2022-11-05T06:08:45.639Z,99746.69
2022-11-05T06:11:13.559Z,99756.28
2022-11-05T06:13:41.091Z,99751.41
2022-11-05T06:16:09.632Z,99753.72
2022-11-05T06:18:37.671Z,99773.84
2022-11-05T06:21:08.737Z,99781.06
2022-11-05T06:23:37.879Z,99781.56
2022-11-05T06:26:07.501Z,99780.41
2022-11-05T06:28:35.823Z,99798.19
2022-11-05T06:31:04.565Z,99794.50
2022-11-05T06:33:31.800Z,99810.50
2022-11-05T06:36:00.634Z,99818.09
2022-11-05T06:38:32.768Z,99822.69
2022-11-05T06:41:05.746Z,99828.34
2022-11-05T06:43:36.757Z,99825.84
2022-11-05T06:46:05.802Z,99829.63
2022-11-05T06:48:34.957Z,99825.88
2022-11-05T06:51:03.366Z,99832.97
2022-11-05T06:53:32.584Z,99836.66
2022-11-05T06:56:02.676Z,99828.28
2022-11-05T06:58:30.264Z,99839.66
2022-11-05T07:01:01.184Z,99838.16
2022-11-05T07:03:29.101Z,99839.19
2022-11-05T07:06:15.054Z,99847.72
2022-11-05T07:08:43.878Z,99848.66
2022-11-05T07:11:11.587Z,99858.06
2022-11-05T07:13:39.068Z,99860.59
2022-11-05T07:16:07.557Z,99874.16
2022-11-05T07:18:34.779Z,99877.81
2022-11-05T07:21:03.062Z,99876.25
2022-11-05T07:23:30.477Z,99872.13
2022-11-05T07:25:59.975Z,99865.28
2022-11-05T07:28:27.345Z,99880.81
2022-11-05T07:30:55.360Z,99882.84
2022-11-05T07:33:22.859Z,99894.06
2022-11-05T07:35:50.760Z,99900.09
2022-11-05T07:38:17.951Z,99904.81
2022-11-05T07:40:45.641Z,99911.97
2022-11-05T07:43:14.699Z,99916.50
2022-11-05T07:45:42.602Z,99923.53
2022-11-05T07:48:10.121Z,99925.59
2022-11-05T07:50:38.257Z,99930.81
2022-11-05T07:53:07.404Z,99929.72
2022-11-05T07:55:35.428Z,99927.72
2022-11-05T07:58:03.496Z,99927.38
2022-11-05T08:00:33.528Z,99940.94
2022-11-05T08:03:07.894Z,99943.44
2022-11-05T08:05:38.211Z,99947.16
2022-11-05T08:08:07.181Z,99946.13
2022-11-05T08:10:35.491Z,99960.56
2022-11-05T08:13:03.297Z,99970.13
2022-11-05T08:15:33.420Z,99955.84
2022-11-05T08:18:01.470Z,99954.56
2022-11-05T08:20:32.329Z,99952.13
2022-11-05T08:22:59.910Z,99954.69
2022-11-05T08:25:28.221Z,99951.59
2022-11-05T08:27:56.687Z,99961.38
2022-11-05T08:30:25.600Z,99959.22
2022-11-05T08:32:58.947Z,99969.75
2022-11-05T08:35:28.145Z,99982.88
2022-11-05T08:37:57.454Z,99981.38
2022-11-05T08:40:25.401Z,99993.19
2022-11-05T08:42:53.274Z,99996.50
2022-11-05T08:45:21.347Z,99997.28
2022-11-05T08:47:48.860Z,100006.41
2022-11-05T08:50:18.178Z,100008.56
2022-11-05T08:52:45.343Z,100022.66
2022-11-05T08:55:13.146Z,100026.47
2022-11-05T08:57:40.405Z,100034.34
2022-11-05T09:00:09.950Z,100032.19
2022-11-05T09:02:37.646Z,100034.19
2022-11-05T09:05:05.911Z,100043.56
2022-11-05T09:07:34.850Z,100046.44
2022-11-05T09:10:02.527Z,100048.31
2022-11-05T09:12:29.749Z,100046.13
2022-11-05T09:14:57.794Z,100045.72
2022-11-05T09:17:25.455Z,100054.38
2022-11-05T09:19:53.356Z,100048.25
2022-11-05T09:22:20.581Z,100054.03
2022-11-05T09:24:49.906Z,100059.25
2022-11-05T09:27:17.183Z,100060.06
2022-11-05T09:29:44.822Z,100062.31
2022-11-05T09:32:12.345Z,100069.63
2022-11-05T09:34:40.094Z,100073.09
2022-11-05T09:37:07.470Z,100074.09
2022-11-05T09:39:35.395Z,100074.66
2022-11-05T09:42:08.477Z,100072.50
2022-11-05T09:44:42.671Z,100068.56
2022-11-05T09:47:15.148Z,100071.81
2022-11-05T09:49:46.522Z,100073.59
2022-11-05T09:52:18.866Z,100079.09
2022-11-05T09:54:46.754Z,100077.19
2022-11-05T09:57:19.118Z,100078.91
2022-11-05T09:59:50.763Z,100088.66
2022-11-05T10:02:21.045Z,100081.97
2022-11-05T10:04:51.425Z,100092.47
2022-11-05T10:07:23.695Z,100089.25
2022-11-05T10:09:56.446Z,100087.28
2022-11-05T10:12:31.773Z,100093.75
2022-11-05T10:15:10.579Z,100096.13
2022-11-05T10:17:40.920Z,100098.91
2022-11-05T10:20:16.292Z,100101.31
2022-11-05T10:22:49.272Z,100104.00
2022-11-05T10:25:20.112Z,100099.09
2022-11-05T10:27:52.161Z,100103.47
2022-11-05T10:30:20.822Z,100110.09
2022-11-05T10:32:49.589Z,100105.59
2022-11-05T10:35:19.892Z,100107.34
2022-11-05T10:37:47.732Z,100113.59
2022-11-05T10:40:22.948Z,100104.69
2022-11-05T10:43:02.063Z,100102.75
2022-11-05T10:45:37.255Z,100104.84
2022-11-05T10:48:25.475Z,100104.59
2022-11-05T10:50:53.859Z,100105.09
2022-11-05T10:53:27.116Z,100114.09
2022-11-05T10:55:54.733Z,100110.81
2022-11-05T10:58:27.444Z,100112.97
2022-11-05T11:01:08.396Z,100110.59
2022-11-05T11:03:41.466Z,100108.91
2022-11-05T11:06:20.311Z,100110.22
2022-11-05T11:08:49.390Z,100117.09
2022-11-05T11:11:27.907Z,100125.00
2022-11-05T11:14:18.494Z,100119.72
2022-11-05T11:16:48.491Z,100122.66
2022-11-05T11:19:26.417Z,100124.72
2022-11-05T11:22:19.204Z,100134.03
2022-11-05T11:24:49.017Z,100133.03
2022-11-05T11:27:21.294Z,100131.81
2022-11-05T11:29:55.254Z,100142.22
2022-11-05T11:32:27.585Z,100139.28
2022-11-05T11:34:56.082Z,100145.50
2022-11-05T11:37:28.238Z,100150.00
2022-11-05T11:40:00.042Z,100146.00
2022-11-05T11:42:29.838Z,100141.47
2022-11-05T11:45:01.576Z,100153.25
2022-11-05T11:47:29.405Z,100151.06
2022-11-05T11:49:58.030Z,100154.03
2022-11-05T11:52:29.780Z,100153.91
2022-11-05T11:55:20.083Z,100165.41
2022-11-05T11:57:49.890Z,100177.78
2022-11-05T12:00:20.579Z,100174.00
2022-11-05T12:03:05.410Z,100169.38
2022-11-05T12:05:55.040Z,100171.88
2022-11-05T12:08:36.407Z,100175.03
2022-11-05T12:11:09.688Z,100166.31
2022-11-05T12:13:58.468Z,100171.22
2022-11-05T12:16:50.896Z,100174.84
2022-11-05T12:19:31.946Z,100172.06
2022-11-05T12:22:05.829Z,100175.69
2022-11-05T12:25:18.105Z,100177.34
2022-11-05T12:28:01.646Z,100189.28
2022-11-05T12:30:37.459Z,100188.25
2022-11-05T12:33:25.859Z,100201.94
2022-11-05T12:36:06.813Z,100200.34
2022-11-05T12:38:55.719Z,100213.22
2022-11-05T12:41:28.039Z,100210.13
2022-11-05T12:44:13.610Z,100190.19
2022-11-05T12:46:49.437Z,100192.38
2022-11-05T12:52:26.660Z,100211.09
2022-11-05T12:55:01.616Z,100204.13
2022-11-05T12:57:31.234Z,100202.34
2022-11-05T13:00:05.904Z,100202.34
2022-11-05T13:02:40.861Z,100199.34
2022-11-05T13:05:16.663Z,100198.09
2022-11-05T13:07:53.551Z,100204.97
2022-11-05T13:10:28.331Z,100209.25
2022-11-05T13:13:02.600Z,100205.19
2022-11-05T13:15:34.073Z,100201.41
2022-11-05T13:18:05.632Z,100209.06
2022-11-05T13:20:37.713Z,100200.91
2022-11-05T13:23:16.996Z,100200.59
2022-11-05T13:25:51.244Z,100216.00
2022-11-05T13:28:26.799Z,100217.78
2022-11-05T13:31:00.361Z,100220.19
2022-11-05T13:33:32.310Z,100219.75
2022-11-05T13:36:05.367Z,100221.38
2022-11-05T13:38:38.282Z,100226.13
2022-11-05T13:41:21.661Z,100224.75
2022-11-05T13:44:15.465Z,100232.53
2022-11-05T13:47:02.816Z,100230.81
2022-11-05T13:49:57.239Z,100235.22
2022-11-05T13:52:43.401Z,100235.88
2022-11-05T13:58:47.295Z,100240.19
2022-11-05T14:01:37.612Z,100244.22
2022-11-05T14:04:06.124Z,100243.69
2022-11-05T14:06:36.518Z,100249.22
2022-11-05T14:09:08.524Z,100250.38
2022-11-05T14:11:38.336Z,100249.50
2022-11-05T14:14:15.816Z,100253.78
2022-11-05T14:16:50.975Z,100251.06
2022-11-05T14:19:50.038Z,100256.56
2022-11-05T14:22:40.876Z,100258.81
2022-11-05T14:25:59.981Z,100260.50
2022-11-05T14:28:52.121Z,100271.41
2022-11-05T14:34:46.215Z,100293.28
2022-11-05T14:37:23.719Z,100290.34
2022-11-05T14:39:53.462Z,100288.72
2022-11-05T14:42:24.728Z,100289.31
2022-11-05T14:44:59.422Z,100294.91
2022-11-05T14:47:32.343Z,100288.03
2022-11-05T14:50:07.489Z,100295.34
2022-11-05T14:52:35.002Z,100303.47
2022-11-05T14:55:03.821Z,100297.50
2022-11-05T14:58:08.762Z,100312.25
2022-11-05T15:00:46.085Z,100310.75
2022-11-05T15:03:58.103Z,100313.22
2022-11-05T15:06:30.003Z,100317.09
2022-11-05T15:09:13.308Z,100319.63
2022-11-05T15:11:58.822Z,100313.41
2022-11-05T15:14:29.038Z,100316.09
2022-11-05T15:17:01.455Z,100310.41
2022-11-05T15:19:31.740Z,100312.53
2022-11-05T15:22:06.001Z,100319.88
2022-11-05T15:24:35.169Z,100323.72
2022-11-05T15:27:15.521Z,100326.22
2022-11-05T15:29:43.006Z,100323.97
2022-11-05T15:32:16.684Z,100329.03
2022-11-05T15:34:51.792Z,100335.38
2022-11-05T15:37:26.107Z,100334.78
2022-11-05T15:39:54.805Z,100337.72
2022-11-05T15:42:24.296Z,100341.84
2022-11-05T15:44:52.723Z,100339.34
2022-11-05T15:47:23.785Z,100341.31
2022-11-05T15:49:54.281Z,100351.44
2022-11-05T15:52:24.775Z,100348.19
2022-11-05T15:55:10.607Z,100357.97
2022-11-05T15:57:46.440Z,100361.56
2022-11-05T16:00:19.300Z,100361.41
2022-11-05T16:02:54.547Z,100367.47
2022-11-05T16:05:22.551Z,100364.47
2022-11-05T16:07:51.738Z,100378.59
2022-11-05T16:10:23.084Z,100372.69
2022-11-05T16:12:51.334Z,100374.91
2022-11-05T16:15:22.150Z,100373.59
2022-11-05T16:17:53.755Z,100371.28
2022-11-05T16:20:25.159Z,100374.50
2022-11-05T16:22:57.671Z,100369.44
2022-11-05T16:25:37.932Z,100381.06
2022-11-05T16:28:18.486Z,100382.09
2022-11-05T16:30:53.496Z,100386.44
2022-11-05T16:33:21.707Z,100394.38
2022-11-05T16:35:49.959Z,100395.75
2022-11-05T16:38:20.512Z,100395.91
2022-11-05T16:40:47.805Z,100396.09
2022-11-05T16:43:19.380Z,100393.94
2022-11-05T16:45:46.641Z,100396.28
2022-11-05T16:48:16.230Z,100405.72
2022-11-05T16:50:44.823Z,100402.16
2022-11-05T16:53:13.448Z,100404.84
2022-11-05T16:55:43.904Z,100410.34
2022-11-05T16:58:19.514Z,100409.72
2022-11-05T17:00:47.689Z,100417.47
2022-11-05T17:03:15.723Z,100426.88
2022-11-05T17:05:43.026Z,100416.78
2022-11-05T17:08:11.113Z,100415.28
2022-11-05T17:10:39.085Z,100420.16
2022-11-05T17:13:10.210Z,100417.28
2022-11-05T17:15:37.663Z,100423.63
2022-11-05T17:18:06.353Z,100432.22
2022-11-05T17:20:40.721Z,100433.06
2022-11-05T17:23:10.986Z,100437.06
2022-11-05T17:25:39.317Z,100441.94
2022-11-05T17:28:09.549Z,100441.59
2022-11-05T17:30:40.355Z,100438.88
2022-11-05T17:33:11.331Z,100440.22
2022-11-05T17:35:39.609Z,100444.63
2022-11-05T17:38:08.040Z,100449.16
2022-11-05T17:40:36.489Z,100445.78
2022-11-05T17:43:04.875Z,100445.97
2022-11-05T17:45:34.324Z,100442.41
2022-11-05T17:48:01.962Z,100453.28
2022-11-05T17:50:29.393Z,100454.56
2022-11-05T17:52:57.115Z,100460.13
2022-11-05T17:55:24.651Z,100462.78
2022-11-05T17:57:53.064Z,100468.34
2022-11-05T18:00:22.845Z,100462.28
2022-11-05T18:02:53.422Z,100464.47
2022-11-05T18:05:22.220Z,100468.66
2022-11-05T18:07:51.350Z,100473.31
2022-11-05T18:10:18.948Z,100472.38
2022-11-05T18:12:47.034Z,100479.91
2022-11-05T18:15:15.211Z,100478.47
2022-11-05T18:17:43.728Z,100474.16
2022-11-05T18:20:18.656Z,100476.50
2022-11-05T18:22:50.094Z,100477.50
2022-11-05T18:25:18.081Z,100480.88
2022-11-05T18:27:47.478Z,100477.66
2022-11-05T18:30:14.838Z,100482.91
2022-11-05T18:32:43.682Z,100485.38
2022-11-05T18:35:13.356Z,100484.63
2022-11-05T18:37:41.373Z,100491.75
2022-11-05T18:40:09.892Z,100487.66
2022-11-05T18:42:38.185Z,100497.47
2022-11-05T18:45:06.622Z,100496.94
2022-11-05T18:47:34.604Z,100505.13
2022-11-05T18:50:02.808Z,100513.75
2022-11-05T18:52:32.776Z,100510.06
2022-11-05T18:55:00.098Z,100515.88
2022-11-05T18:57:28.597Z,100518.75
2022-11-05T18:59:56.130Z,100522.75
2022-11-05T19:02:24.018Z,100523.31
2022-11-05T19:05:22.120Z,100515.53
2022-11-05T19:07:40.688Z,100518.91
2022-11-05T19:10:09.528Z,100525.03
2022-11-05T19:12:37.553Z,100534.59
2022-11-05T19:15:05.542Z,100532.09
2022-11-05T19:17:33.799Z,100539.41
2022-11-05T19:20:01.505Z,100539.34
2022-11-05T19:22:29.310Z,100542.16
2022-11-05T19:24:58.188Z,100543.34
2022-11-05T19:27:26.367Z,100540.56
2022-11-05T19:29:53.854Z,100549.59
2022-11-05T19:32:21.933Z,100552.66
2022-11-05T19:34:49.648Z,100552.91
2022-11-05T19:37:17.580Z,100556.72
2022-11-05T19:39:44.818Z,100556.34
2022-11-05T19:42:14.232Z,100562.28
2022-11-05T19:44:41.801Z,100561.84
2022-11-05T19:47:09.956Z,100565.22
2022-11-05T19:49:37.251Z,100566.63
2022-11-05T19:52:05.329Z,100569.72
2022-11-05T19:54:32.868Z,100564.50
2022-11-05T19:57:00.457Z,100570.72
2022-11-05T19:59:29.294Z,100568.19
2022-11-05T20:01:57.209Z,100569.88
2022-11-05T20:04:25.138Z,100572.41
2022-11-05T20:06:53.117Z,100562.28
2022-11-05T20:09:22.258Z,100565.66
2022-11-05T20:11:52.368Z,100570.41
2022-11-05T20:14:19.850Z,100563.25
2022-11-05T20:16:49.554Z,100569.16
2022-11-05T20:19:19.061Z,100572.66
2022-11-05T20:21:47.267Z,100566.03
2022-11-05T20:24:22.337Z,100569.41
2022-11-05T20:26:52.179Z,100571.25
2022-11-05T20:29:19.536Z,100573.25
2022-11-05T20:31:49.094Z,100570.28
2022-11-05T20:34:16.449Z,100575.22
2022-11-05T20:36:44.151Z,100574.81
2022-11-05T20:39:11.484Z,100575.91
2022-11-05T20:41:39.230Z,100582.53
2022-11-05T20:44:06.660Z,100578.88
2022-11-05T20:46:34.506Z,100586.59
2022-11-05T20:49:03.208Z,100585.91
2022-11-05T20:51:30.953Z,100589.44
2022-11-05T20:53:59.873Z,100589.44
2022-11-05T20:56:30.666Z,100593.94
2022-11-05T20:58:59.677Z,100591.53
2022-11-05T21:02:01.380Z,100592.50
2022-11-05T21:04:30.231Z,100597.25
2022-11-05T21:06:57.888Z,100593.25
2022-11-05T21:09:25.434Z,100594.78
2022-11-05T21:11:53.141Z,100594.09
2022-11-05T21:14:20.585Z,100599.44
2022-11-05T21:16:48.391Z,100595.78
2022-11-05T21:19:15.757Z,100598.59
2022-11-05T21:21:44.966Z,100602.78
2022-11-05T21:24:12.274Z,100594.00
2022-11-05T21:26:39.963Z,100594.41
2022-11-05T21:29:07.262Z,100605.03
2022-11-05T21:31:36.063Z,100589.78
2022-11-05T21:34:04.046Z,100591.97
2022-11-05T21:36:31.891Z,100594.78
2022-11-05T21:39:00.519Z,100589.84
2022-11-05T21:41:28.223Z,100589.97
2022-11-05T21:43:55.383Z,100586.88
2022-11-05T21:46:23.285Z,100592.31
2022-11-05T21:48:50.584Z,100589.03
2022-11-05T21:51:18.269Z,100594.81
2022-11-05T21:53:45.486Z,100598.19
2022-11-05T21:56:18.999Z,100598.31
2022-11-05T21:58:46.853Z,100603.31
2022-11-05T22:01:14.239Z,100596.78
2022-11-05T22:03:41.992Z,100593.34
2022-11-05T22:06:09.359Z,100597.50
2022-11-05T22:08:37.086Z,100599.59
2022-11-05T22:11:04.544Z,100602.34
2022-11-05T22:13:33.607Z,100607.81
2022-11-05T22:16:01.072Z,100606.59
2022-11-05T22:18:28.821Z,100607.16
2022-11-05T22:20:56.072Z,100608.84
2022-11-05T22:23:23.783Z,100608.09
2022-11-05T22:25:58.009Z,100607.09
2022-11-05T22:28:25.622Z,100609.69
2022-11-05T22:30:54.331Z,100612.44
2022-11-05T22:33:21.990Z,100606.47
2022-11-05T22:35:49.335Z,100604.91
2022-11-05T22:38:17.203Z,100600.44
2022-11-05T22:40:44.627Z,100601.13
2022-11-05T22:43:12.225Z,100616.25
2022-11-05T22:45:39.432Z,100609.72
2022-11-05T22:48:08.950Z,100617.81
2022-11-05T22:50:36.286Z,100615.88
2022-11-05T22:53:03.997Z,100615.41
2022-11-05T22:55:31.440Z,100612.88
2022-11-05T22:57:59.327Z,100602.53
2022-11-05T23:00:34.887Z,100597.19
2022-11-05T23:03:03.659Z,100609.59
2022-11-05T23:05:32.604Z,100609.75
2022-11-05T23:08:00.292Z,100614.00
2022-11-05T23:10:27.640Z,100607.25
2022-11-05T23:12:55.237Z,100614.28
2022-11-05T23:15:23.294Z,100606.28
2022-11-05T23:17:50.591Z,100603.63
2022-11-05T23:20:20.005Z,100604.72
2022-11-05T23:22:49.142Z,100613.78
2022-11-05T23:25:18.711Z,100623.13
2022-11-05T23:27:49.593Z,100618.78
2022-11-05T23:30:18.925Z,100623.50
2022-11-05T23:32:47.059Z,100622.66
2022-11-05T23:35:14.577Z,100621.31
2022-11-05T23:37:42.428Z,100622.03
2022-11-05T23:40:14.222Z,100629.06
2022-11-05T23:42:42.239Z,100626.16
2022-11-05T23:45:14.436Z,100632.69
2022-11-05T23:47:43.157Z,100636.19
2022-11-05T23:50:10.363Z,100623.50
2022-11-05T23:52:38.377Z,100636.31
2022-11-05T23:55:06.038Z,100635.94
2022-11-05T23:57:35.263Z,100637.13
